sensor_id;sensor_type;location;lat;lon;timestamp;pressure;altitude;pressure_sealevel;temperature;humidity
55263;BME280;41125;48.752;9.168;2023-02-13T00:00:49;98748.06;;;1.07;95.69
55263;BME280;41125;48.752;9.168;2023-02-13T00:01:20;98743.56;;;1.07;95.91
55263;BME280;41125;48.752;9.168;2023-02-13T00:01:52;98743.56;;;1.07;95.95
55263;BME280;41125;48.752;9.168;2023-02-13T00:02:24;98747.06;;;1.08;95.69
55263;BME280;41125;48.752;9.168;2023-02-13T00:02:56;98745.22;;;1.08;96.11
55263;BME280;41125;48.752;9.168;2023-02-13T00:03:30;98749.72;;;1.08;96.10
55263;BME280;41125;48.752;9.168;2023-02-13T00:04:01;98746.00;;;1.02;95.46
55263;BME280;41125;48.752;9.168;2023-02-13T00:04:32;98749.03;;;0.99;95.94
55263;BME280;41125;48.752;9.168;2023-02-13T00:05:06;98743.03;;;0.97;95.78
55263;BME280;41125;48.752;9.168;2023-02-13T00:05:38;98751.06;;;0.97;95.95
55263;BME280;41125;48.752;9.168;2023-02-13T00:06:09;98743.03;;;0.97;96.17
55263;BME280;41125;48.752;9.168;2023-02-13T00:06:40;98742.41;;;0.95;96.17
55263;BME280;41125;48.752;9.168;2023-02-13T00:07:12;98743.41;;;0.94;96.18
55263;BME280;41125;48.752;9.168;2023-02-13T00:07:47;98744.44;;;0.93;96.56
55263;BME280;41125;48.752;9.168;2023-02-13T00:08:18;98746.28;;;0.92;96.25
55263;BME280;41125;48.752;9.168;2023-02-13T00:08:50;98747.94;;;0.93;96.69
55263;BME280;41125;48.752;9.168;2023-02-13T00:09:21;98749.59;;;0.94;96.45
55263;BME280;41125;48.752;9.168;2023-02-13T00:09:53;98750.41;;;0.95;96.69
55263;BME280;41125;48.752;9.168;2023-02-13T00:10:24;98746.72;;;0.96;96.72
55263;BME280;41125;48.752;9.168;2023-02-13T00:10:56;98746.72;;;0.96;96.87
55263;BME280;41125;48.752;9.168;2023-02-13T00:11:31;98748.38;;;0.97;96.91
55263;BME280;41125;48.752;9.168;2023-02-13T00:12:03;98750.87;;;0.98;96.99
55263;BME280;41125;48.752;9.168;2023-02-13T00:12:34;98749.03;;;0.99;96.81
55263;BME280;41125;48.752;9.168;2023-02-13T00:13:06;98743.69;;;0.99;96.92
55263;BME280;41125;48.752;9.168;2023-02-13T00:13:37;98747.38;;;0.98;96.61
55263;BME280;41125;48.752;9.168;2023-02-13T00:14:08;98741.00;;;0.99;96.53
55263;BME280;41125;48.752;9.168;2023-02-13T00:14:40;98745.34;;;1.00;96.51
55263;BME280;41125;48.752;9.168;2023-02-13T00:15:11;98742.69;;;1.00;96.85
55263;BME280;41125;48.752;9.168;2023-02-13T00:15:42;98741.66;;;1.01;96.37
55263;BME280;41125;48.752;9.168;2023-02-13T00:16:14;98739.00;;;1.01;96.61
55263;BME280;41125;48.752;9.168;2023-02-13T00:16:45;98744.34;;;1.01;96.32
55263;BME280;41125;48.752;9.168;2023-02-13T00:17:16;98744.34;;;1.01;96.38
55263;BME280;41125;48.752;9.168;2023-02-13T00:17:47;98750.94;;;1.05;96.53
55263;BME280;41125;48.752;9.168;2023-02-13T00:18:18;98743.13;;;1.04;96.13
55263;BME280;41125;48.752;9.168;2023-02-13T00:18:50;98744.34;;;1.01;95.84
55263;BME280;41125;48.752;9.168;2023-02-13T00:19:21;98744.34;;;1.01;96.18
55263;BME280;41125;48.752;9.168;2023-02-13T00:19:52;98745.16;;;1.02;95.90
55263;BME280;41125;48.752;9.168;2023-02-13T00:20:23;98745.16;;;1.02;96.19
55263;BME280;41125;48.752;9.168;2023-02-13T00:21:07;98745.16;;;1.02;95.86
55263;BME280;41125;48.752;9.168;2023-02-13T00:21:38;98747.00;;;1.01;95.96
55263;BME280;41125;48.752;9.168;2023-02-13T00:22:10;98752.34;;;1.01;96.05
55263;BME280;41125;48.752;9.168;2023-02-13T00:22:41;98749.69;;;1.01;96.30
55263;BME280;41125;48.752;9.168;2023-02-13T00:23:13;98743.69;;;0.99;96.07
55263;BME280;41125;48.752;9.168;2023-02-13T00:23:44;98745.34;;;1.00;96.46
55263;BME280;41125;48.752;9.168;2023-02-13T00:24:15;98748.03;;;1.00;96.12
55263;BME280;41125;48.752;9.168;2023-02-13T00:24:47;98742.69;;;1.00;96.46
55263;BME280;41125;48.752;9.168;2023-02-13T00:25:19;98739.00;;;1.01;96.15
55263;BME280;41125;48.752;9.168;2023-02-13T00:25:50;98747.00;;;1.01;96.28
55263;BME280;41125;48.752;9.168;2023-02-13T00:26:21;98746.00;;;1.02;96.34
55263;BME280;41125;48.752;9.168;2023-02-13T00:26:53;98744.34;;;1.01;96.31
55263;BME280;41125;48.752;9.168;2023-02-13T00:27:24;98741.66;;;1.01;96.43
55263;BME280;41125;48.752;9.168;2023-02-13T00:27:55;98748.84;;;1.00;96.50
55263;BME280;41125;48.752;9.168;2023-02-13T00:28:27;98738.16;;;1.00;96.34
55263;BME280;41125;48.752;9.168;2023-02-13T00:28:58;98744.16;;;1.03;96.29
55263;BME280;41125;48.752;9.168;2023-02-13T00:29:29;98743.31;;;1.02;96.33
55263;BME280;41125;48.752;9.168;2023-02-13T00:30:02;98744.34;;;1.01;96.70
55263;BME280;41125;48.752;9.168;2023-02-13T00:30:33;98744.34;;;1.01;96.67
55263;BME280;41125;48.752;9.168;2023-02-13T00:31:10;98739.81;;;1.02;96.35
55263;BME280;41125;48.752;9.168;2023-02-13T00:31:42;98743.31;;;1.02;96.45
55263;BME280;41125;48.752;9.168;2023-02-13T00:32:13;98739.62;;;1.03;96.43
55263;BME280;41125;48.752;9.168;2023-02-13T00:32:45;98742.31;;;1.03;96.33
55263;BME280;41125;48.752;9.168;2023-02-13T00:33:16;98747.66;;;1.03;96.62
55263;BME280;41125;48.752;9.168;2023-02-13T00:33:48;98742.31;;;1.03;96.44
55263;BME280;41125;48.752;9.168;2023-02-13T00:34:20;98743.13;;;1.04;96.70
55263;BME280;41125;48.752;9.168;2023-02-13T00:34:51;98742.09;;;1.05;96.52
55263;BME280;41125;48.752;9.168;2023-02-13T00:35:23;98740.25;;;1.05;96.66
55263;BME280;41125;48.752;9.168;2023-02-13T00:36:20;98742.91;;;1.05;96.74
55263;BME280;41125;48.752;9.168;2023-02-13T00:36:51;98743.94;;;1.04;96.76
55263;BME280;41125;48.752;9.168;2023-02-13T00:37:24;98746.00;;;1.02;96.34
55263;BME280;41125;48.752;9.168;2023-02-13T00:37:55;98744.34;;;1.01;96.55
55263;BME280;41125;48.752;9.168;2023-02-13T00:38:28;98743.50;;;1.00;96.43
55263;BME280;41125;48.752;9.168;2023-02-13T00:39:00;98741.66;;;1.01;96.58
55263;BME280;41125;48.752;9.168;2023-02-13T00:39:31;98742.69;;;1.00;96.41
55263;BME280;41125;48.752;9.168;2023-02-13T00:40:04;98738.16;;;1.00;96.54
55263;BME280;41125;48.752;9.168;2023-02-13T00:40:35;98737.97;;;1.02;96.41
55263;BME280;41125;48.752;9.168;2023-02-13T00:41:07;98742.31;;;1.03;96.43
55263;BME280;41125;48.752;9.168;2023-02-13T00:41:39;98735.91;;;1.04;96.47
55263;BME280;41125;48.752;9.168;2023-02-13T00:42:14;98735.31;;;1.02;96.33
55263;BME280;41125;48.752;9.168;2023-02-13T00:42:45;98740.84;;;1.00;96.24
55263;BME280;41125;48.752;9.168;2023-02-13T00:43:16;98739.72;;;0.95;96.22
55263;BME280;41125;48.752;9.168;2023-02-13T00:43:48;98732.72;;;0.94;95.96
55263;BME280;41125;48.752;9.168;2023-02-13T00:44:20;98741.56;;;0.94;95.92
55263;BME280;41125;48.752;9.168;2023-02-13T00:44:52;98748.75;;;0.94;96.08
55263;BME280;41125;48.752;9.168;2023-02-13T00:45:24;98743.41;;;0.94;96.34
55263;BME280;41125;48.752;9.168;2023-02-13T00:45:56;98731.06;;;0.93;96.12
55263;BME280;41125;48.752;9.168;2023-02-13T00:46:28;98742.13;;;0.90;96.38
55263;BME280;41125;48.752;9.168;2023-02-13T00:46:59;98736.78;;;0.90;96.20
55263;BME280;41125;48.752;9.168;2023-02-13T00:47:31;98739.28;;;0.91;96.62
55263;BME280;41125;48.752;9.168;2023-02-13T00:48:03;98733.09;;;0.91;96.54
55263;BME280;41125;48.752;9.168;2023-02-13T00:48:35;98735.75;;;0.91;96.71
55263;BME280;41125;48.752;9.168;2023-02-13T00:49:07;98738.44;;;0.91;96.49
55263;BME280;41125;48.752;9.168;2023-02-13T00:49:38;98733.94;;;0.91;96.56
55263;BME280;41125;48.752;9.168;2023-02-13T00:50:11;98739.28;;;0.91;96.65
55263;BME280;41125;48.752;9.168;2023-02-13T00:50:43;98742.78;;;0.92;97.00
55263;BME280;41125;48.752;9.168;2023-02-13T00:51:16;98736.41;;;0.93;96.82
55263;BME280;41125;48.752;9.168;2023-02-13T00:51:47;98743.41;;;0.94;96.77
55263;BME280;41125;48.752;9.168;2023-02-13T00:52:19;98736.78;;;0.90;96.71
55263;BME280;41125;48.752;9.168;2023-02-13T00:52:50;98742.59;;;0.93;96.59
55263;BME280;41125;48.752;9.168;2023-02-13T00:53:23;98742.59;;;0.93;96.64
55263;BME280;41125;48.752;9.168;2023-02-13T00:53:54;98737.25;;;0.93;97.04
55263;BME280;41125;48.752;9.168;2023-02-13T00:54:26;98745.06;;;0.95;96.66
55263;BME280;41125;48.752;9.168;2023-02-13T00:54:57;98741.38;;;0.96;96.70
55263;BME280;41125;48.752;9.168;2023-02-13T00:55:28;98741.38;;;0.96;96.57
55263;BME280;41125;48.752;9.168;2023-02-13T00:56:00;98746.72;;;0.96;96.85
55263;BME280;41125;48.752;9.168;2023-02-13T00:56:31;98745.06;;;0.95;96.57
55263;BME280;41125;48.752;9.168;2023-02-13T00:57:03;98746.72;;;0.96;96.91
55263;BME280;41125;48.752;9.168;2023-02-13T00:57:35;98741.19;;;0.97;96.56
55263;BME280;41125;48.752;9.168;2023-02-13T00:58:06;98744.69;;;0.98;96.70
55263;BME280;41125;48.752;9.168;2023-02-13T00:58:38;98737.69;;;0.97;96.67
55263;BME280;41125;48.752;9.168;2023-02-13T00:59:09;98745.06;;;0.95;96.92
55263;BME280;41125;48.752;9.168;2023-02-13T00:59:40;98741.38;;;0.96;96.72
55263;BME280;41125;48.752;9.168;2023-02-13T01:00:13;98739.72;;;0.95;96.95
55263;BME280;41125;48.752;9.168;2023-02-13T01:00:45;98741.38;;;0.96;96.83
55263;BME280;41125;48.752;9.168;2023-02-13T01:01:17;98743.03;;;0.97;96.77
55263;BME280;41125;48.752;9.168;2023-02-13T01:01:49;98739.53;;;0.96;96.75
55263;BME280;41125;48.752;9.168;2023-02-13T01:02:20;98744.06;;;0.96;97.07
55263;BME280;41125;48.752;9.168;2023-02-13T01:02:51;98741.38;;;0.96;96.78
55263;BME280;41125;48.752;9.168;2023-02-13T01:03:23;98738.72;;;0.96;96.70
55263;BME280;41125;48.752;9.168;2023-02-13T01:03:55;98741.38;;;0.96;96.97
55263;BME280;41125;48.752;9.168;2023-02-13T01:04:26;98745.72;;;0.97;96.69
55263;BME280;41125;48.752;9.168;2023-02-13T01:04:58;98739.53;;;0.96;96.67
55263;BME280;41125;48.752;9.168;2023-02-13T01:05:29;98739.09;;;0.93;96.40
55263;BME280;41125;48.752;9.168;2023-02-13T01:06:03;98739.44;;;0.90;96.40
55263;BME280;41125;48.752;9.168;2023-02-13T01:06:35;98741.28;;;0.89;96.22
55263;BME280;41125;48.752;9.168;2023-02-13T01:07:08;98735.13;;;0.89;96.35
55263;BME280;41125;48.752;9.168;2023-02-13T01:07:40;98740.47;;;0.89;96.64
55263;BME280;41125;48.752;9.168;2023-02-13T01:08:12;98744.16;;;0.88;96.41
55263;BME280;41125;48.752;9.168;2023-02-13T01:08:44;98731.62;;;0.88;96.53
55263;BME280;41125;48.752;9.168;2023-02-13T01:09:15;98730.97;;;0.86;96.79
55263;BME280;41125;48.752;9.168;2023-02-13T01:09:46;98732.81;;;0.86;96.62
55263;BME280;41125;48.752;9.168;2023-02-13T01:10:17;98736.31;;;0.86;96.71
55263;BME280;41125;48.752;9.168;2023-02-13T01:10:49;98741.66;;;0.86;96.75
55263;BME280;41125;48.752;9.168;2023-02-13T01:11:20;98732.62;;;0.87;96.84
55263;BME280;41125;48.752;9.168;2023-02-13T01:11:52;98733.47;;;0.88;96.83
55263;BME280;41125;48.752;9.168;2023-02-13T01:12:23;98731.81;;;0.87;97.00
55263;BME280;41125;48.752;9.168;2023-02-13T01:12:54;98737.78;;;0.89;97.40
55263;BME280;41125;48.752;9.168;2023-02-13T01:13:25;98735.94;;;0.89;97.35
55263;BME280;41125;48.752;9.168;2023-02-13T01:13:57;98732.25;;;0.90;97.37
55263;BME280;41125;48.752;9.168;2023-02-13T01:14:30;98732.09;;;0.92;97.85
55263;BME280;41125;48.752;9.168;2023-02-13T01:15:03;98733.75;;;0.93;98.07
55263;BME280;41125;48.752;9.168;2023-02-13T01:15:35;98737.25;;;0.93;98.06
55263;BME280;41125;48.752;9.168;2023-02-13T01:16:07;98730.06;;;0.94;98.26
55263;BME280;41125;48.752;9.168;2023-02-13T01:16:38;98738.06;;;0.94;98.31
55263;BME280;41125;48.752;9.168;2023-02-13T01:17:09;98735.41;;;0.94;98.50
55263;BME280;41125;48.752;9.168;2023-02-13T01:17:40;98732.72;;;0.94;98.46
55263;BME280;41125;48.752;9.168;2023-02-13T01:18:14;98731.06;;;0.93;98.51
55263;BME280;41125;48.752;9.168;2023-02-13T01:18:46;98733.09;;;0.91;98.60
55263;BME280;41125;48.752;9.168;2023-02-13T01:19:17;98727.75;;;0.91;98.79
55263;BME280;41125;48.752;9.168;2023-02-13T01:19:48;98731.44;;;0.90;98.90
55263;BME280;41125;48.752;9.168;2023-02-13T01:20:20;98730.41;;;0.91;98.96
55263;BME280;41125;48.752;9.168;2023-02-13T01:20:59;98732.53;;;0.95;98.60
55263;BME280;41125;48.752;9.168;2023-02-13T01:21:31;98731.72;;;0.95;98.37
55263;BME280;41125;48.752;9.168;2023-02-13T01:22:03;98732.53;;;0.95;98.08
55263;BME280;41125;48.752;9.168;2023-02-13T01:22:34;98734.38;;;0.95;98.04
55263;BME280;41125;48.752;9.168;2023-02-13T01:23:06;98728.22;;;0.94;97.82
55263;BME280;41125;48.752;9.168;2023-02-13T01:23:37;98739.72;;;0.95;98.07
55263;BME280;41125;48.752;9.168;2023-02-13T01:24:09;98736.22;;;0.94;97.80
55263;BME280;41125;48.752;9.168;2023-02-13T01:24:41;98729.03;;;0.95;98.00
55263;BME280;41125;48.752;9.168;2023-02-13T01:25:13;98732.72;;;0.94;97.98
55263;BME280;41125;48.752;9.168;2023-02-13T01:25:45;98727.38;;;0.94;97.85
55263;BME280;41125;48.752;9.168;2023-02-13T01:26:19;98734.38;;;0.95;97.52
55263;BME280;41125;48.752;9.168;2023-02-13T01:26:50;98727.38;;;0.94;97.43
55263;BME280;41125;48.752;9.168;2023-02-13T01:27:21;98739.72;;;0.95;97.37
55263;BME280;41125;48.752;9.168;2023-02-13T01:27:53;98736.41;;;0.93;97.49
55263;BME280;41125;48.752;9.168;2023-02-13T01:28:24;98731.91;;;0.93;97.55
55263;BME280;41125;48.752;9.168;2023-02-13T01:28:55;98736.41;;;0.93;97.52
55263;BME280;41125;48.752;9.168;2023-02-13T01:29:28;98734.56;;;0.93;97.35
55263;BME280;41125;48.752;9.168;2023-02-13T01:30:00;98738.06;;;0.94;97.38
55263;BME280;41125;48.752;9.168;2023-02-13T01:30:31;98734.75;;;0.92;96.91
55263;BME280;41125;48.752;9.168;2023-02-13T01:31:02;98730.41;;;0.91;96.82
55263;BME280;41125;48.752;9.168;2023-02-13T01:31:34;98731.44;;;0.90;96.81
55263;BME280;41125;48.752;9.168;2023-02-13T01:32:06;98728.56;;;0.91;96.87
55263;BME280;41125;48.752;9.168;2023-02-13T01:32:37;98727.75;;;0.91;97.05
55263;BME280;41125;48.752;9.168;2023-02-13T01:33:11;98731.25;;;0.91;97.08
55263;BME280;41125;48.752;9.168;2023-02-13T01:33:42;98719.72;;;0.91;96.79
55263;BME280;41125;48.752;9.168;2023-02-13T01:34:14;98731.44;;;0.90;97.19
55263;BME280;41125;48.752;9.168;2023-02-13T01:34:45;98724.44;;;0.89;96.79
55263;BME280;41125;48.752;9.168;2023-02-13T01:35:17;98724.44;;;0.89;96.81
55263;BME280;41125;48.752;9.168;2023-02-13T01:35:49;98722.41;;;0.91;96.86
55263;BME280;41125;48.752;9.168;2023-02-13T01:36:20;98721.37;;;0.92;97.03
55263;BME280;41125;48.752;9.168;2023-02-13T01:36:51;98724.06;;;0.92;97.17
55263;BME280;41125;48.752;9.168;2023-02-13T01:37:23;98719.53;;;0.92;97.27
55263;BME280;41125;48.752;9.168;2023-02-13T01:37:54;98716.03;;;0.92;96.97
55263;BME280;41125;48.752;9.168;2023-02-13T01:38:25;98721.03;;;0.95;97.31
55263;BME280;41125;48.752;9.168;2023-02-13T01:38:58;98717.34;;;0.96;97.08
55263;BME280;41125;48.752;9.168;2023-02-13T01:39:29;98724.16;;;0.98;97.22
55263;BME280;41125;48.752;9.168;2023-02-13T01:40:01;98714.28;;;0.99;97.19
55263;BME280;41125;48.752;9.168;2023-02-13T01:40:33;98720.66;;;0.98;97.08
55263;BME280;41125;48.752;9.168;2023-02-13T01:41:05;98724.16;;;0.98;97.08
55263;BME280;41125;48.752;9.168;2023-02-13T01:41:40;98717.16;;;0.97;97.03
55263;BME280;41125;48.752;9.168;2023-02-13T01:42:20;98723.31;;;0.98;96.68
55263;BME280;41125;48.752;9.168;2023-02-13T01:42:51;98720.66;;;0.98;96.67
55263;BME280;41125;48.752;9.168;2023-02-13T01:43:23;98725.34;;;0.96;96.46
55263;BME280;41125;48.752;9.168;2023-02-13T01:43:57;98723.69;;;0.95;96.77
55263;BME280;41125;48.752;9.168;2023-02-13T01:44:53;98721.19;;;0.93;95.98
55263;BME280;41125;48.752;9.168;2023-02-13T01:45:27;98721.94;;;0.87;96.13
55263;BME280;41125;48.752;9.168;2023-02-13T01:46:00;98719.47;;;0.86;95.82
55263;BME280;41125;48.752;9.168;2023-02-13T01:46:37;98724.81;;;0.86;96.11
55263;BME280;41125;48.752;9.168;2023-02-13T01:47:11;98718.81;;;0.84;95.79
55263;BME280;41125;48.752;9.168;2023-02-13T01:48:04;98721.50;;;0.84;95.98
55263;BME280;41125;48.752;9.168;2023-02-13T01:48:37;98721.50;;;0.84;96.36
55263;BME280;41125;48.752;9.168;2023-02-13T01:49:16;98716.97;;;0.84;96.12
55263;BME280;41125;48.752;9.168;2023-02-13T01:49:59;98721.50;;;0.84;96.16
55263;BME280;41125;48.752;9.168;2023-02-13T01:50:38;98714.47;;;0.83;96.37
55263;BME280;41125;48.752;9.168;2023-02-13T01:51:18;98727.19;;;0.81;96.25
55263;BME280;41125;48.752;9.168;2023-02-13T01:51:56;98722.88;;;0.80;96.63
55263;BME280;41125;48.752;9.168;2023-02-13T01:52:28;98719.19;;;0.81;96.52
55263;BME280;41125;48.752;9.168;2023-02-13T01:53:08;98711.16;;;0.81;96.79
55263;BME280;41125;48.752;9.168;2023-02-13T01:53:48;98721.84;;;0.81;96.76
55263;BME280;41125;48.752;9.168;2023-02-13T01:54:27;98717.53;;;0.80;96.88
55263;BME280;41125;48.752;9.168;2023-02-13T01:55:04;98714.66;;;0.81;96.56
55263;BME280;41125;48.752;9.168;2023-02-13T01:55:46;98718.16;;;0.82;96.90
55263;BME280;41125;48.752;9.168;2023-02-13T01:56:37;98720.66;;;0.83;96.86
55263;BME280;41125;48.752;9.168;2023-02-13T01:57:18;98717.78;;;0.85;96.74
55263;BME280;41125;48.752;9.168;2023-02-13T01:58:01;98715.13;;;0.85;96.96
55263;BME280;41125;48.752;9.168;2023-02-13T01:58:37;98717.78;;;0.85;96.67
55263;BME280;41125;48.752;9.168;2023-02-13T01:59:14;98720.47;;;0.85;96.65
55263;BME280;41125;48.752;9.168;2023-02-13T01:59:51;98709.78;;;0.85;96.52
55263;BME280;41125;48.752;9.168;2023-02-13T02:00:24;98715.97;;;0.85;96.55
55263;BME280;41125;48.752;9.168;2023-02-13T02:01:00;98718.63;;;0.85;96.74
55263;BME280;41125;48.752;9.168;2023-02-13T02:01:33;98719.47;;;0.86;96.38
55263;BME280;41125;48.752;9.168;2023-02-13T02:02:05;98722.13;;;0.86;96.69
55263;BME280;41125;48.752;9.168;2023-02-13T02:02:38;98718.63;;;0.85;96.41
55263;BME280;41125;48.752;9.168;2023-02-13T02:03:20;98723.16;;;0.85;96.73
55263;BME280;41125;48.752;9.168;2023-02-13T02:04:17;98717.78;;;0.85;96.51
55263;BME280;41125;48.752;9.168;2023-02-13T02:04:52;98723.16;;;0.85;96.29
55263;BME280;41125;48.752;9.168;2023-02-13T02:05:26;98716.97;;;0.84;96.38
55263;BME280;41125;48.752;9.168;2023-02-13T02:06:00;98721.50;;;0.84;96.63
55263;BME280;41125;48.752;9.168;2023-02-13T02:06:40;98721.50;;;0.84;96.27
55263;BME280;41125;48.752;9.168;2023-02-13T02:07:32;98716.97;;;0.84;96.41
55263;BME280;41125;48.752;9.168;2023-02-13T02:08:08;98722.31;;;0.84;96.71
55263;BME280;41125;48.752;9.168;2023-02-13T02:08:41;98720.47;;;0.85;96.57
55263;BME280;41125;48.752;9.168;2023-02-13T02:09:20;98721.50;;;0.84;96.54
55263;BME280;41125;48.752;9.168;2023-02-13T02:09:57;98721.50;;;0.84;96.41
55263;BME280;41125;48.752;9.168;2023-02-13T02:10:29;98712.47;;;0.85;96.36
55263;BME280;41125;48.752;9.168;2023-02-13T02:11:10;98722.31;;;0.84;96.53
55263;BME280;41125;48.752;9.168;2023-02-13T02:11:55;98723.16;;;0.85;96.62
55263;BME280;41125;48.752;9.168;2023-02-13T02:13:51;98716.12;;;0.84;96.67
55263;BME280;41125;48.752;9.168;2023-02-13T02:14:23;98721.50;;;0.84;96.76
55263;BME280;41125;48.752;9.168;2023-02-13T02:14:58;98721.50;;;0.84;96.61
55263;BME280;41125;48.752;9.168;2023-02-13T02:15:30;98718.63;;;0.85;96.64
55263;BME280;41125;48.752;9.168;2023-02-13T02:16:02;98719.47;;;0.86;96.72
55263;BME280;41125;48.752;9.168;2023-02-13T02:16:34;98713.94;;;0.87;97.04
55263;BME280;41125;48.752;9.168;2023-02-13T02:17:05;98718.44;;;0.87;96.77
55263;BME280;41125;48.752;9.168;2023-02-13T02:17:37;98722.78;;;0.88;96.88
55263;BME280;41125;48.752;9.168;2023-02-13T02:18:16;98719.91;;;0.89;96.80
55263;BME280;41125;48.752;9.168;2023-02-13T02:18:48;98722.41;;;0.91;97.07
55263;BME280;41125;48.752;9.168;2023-02-13T02:19:41;98717.06;;;0.91;96.83
55263;BME280;41125;48.752;9.168;2023-02-13T02:22:11;98715.03;;;0.93;96.95
55263;BME280;41125;48.752;9.168;2023-02-13T02:23:25;98718.72;;;0.92;96.87
55263;BME280;41125;48.752;9.168;2023-02-13T02:24:32;98717.88;;;0.91;96.54
55263;BME280;41125;48.752;9.168;2023-02-13T02:25:46;98714.38;;;0.91;96.55
55263;BME280;41125;48.752;9.168;2023-02-13T02:26:49;98713.56;;;0.90;96.22
55263;BME280;41125;48.752;9.168;2023-02-13T02:29:27;98721.13;;;0.87;96.15
55263;BME280;41125;48.752;9.168;2023-02-13T02:33:02;98718.81;;;0.84;96.14
55263;BME280;41125;48.752;9.168;2023-02-13T02:35:16;98714.84;;;0.80;96.33
55263;BME280;41125;48.752;9.168;2023-02-13T02:38:39;98723.78;;;0.72;96.16
55263;BME280;41125;48.752;9.168;2023-02-13T02:39:57;98721.31;;;0.71;96.18
55263;BME280;41125;48.752;9.168;2023-02-13T02:43:50;98715.53;;;0.67;96.44
55263;BME280;41125;48.752;9.168;2023-02-13T02:44:37;98718.00;;;0.69;96.48
55263;BME280;41125;48.752;9.168;2023-02-13T02:47:06;98712.66;;;0.69;97.10
55263;BME280;41125;48.752;9.168;2023-02-13T02:49:16;98715.59;;;0.74;97.27
55263;BME280;41125;48.752;9.168;2023-02-13T02:51:34;98714.03;;;0.79;97.58
55263;BME280;41125;48.752;9.168;2023-02-13T02:52:18;98707.84;;;0.79;97.48
55263;BME280;41125;48.752;9.168;2023-02-13T02:53:16;98716.50;;;0.81;97.52
55263;BME280;41125;48.752;9.168;2023-02-13T02:54:12;98709.12;;;0.83;97.42
55263;BME280;41125;48.752;9.168;2023-02-13T02:56:16;98707.09;;;0.85;97.35
55263;BME280;41125;48.752;9.168;2023-02-13T02:56:51;98706.28;;;0.84;97.27
55263;BME280;41125;48.752;9.168;2023-02-13T02:57:30;98707.09;;;0.85;96.93
55263;BME280;41125;48.752;9.168;2023-02-13T02:58:36;98710.78;;;0.84;96.89
55263;BME280;41125;48.752;9.168;2023-02-13T02:59:29;98708.13;;;0.84;96.94
55263;BME280;41125;48.752;9.168;2023-02-13T03:00:22;98708.31;;;0.82;97.27
55263;BME280;41125;48.752;9.168;2023-02-13T03:01:14;98703.78;;;0.83;97.29
55263;BME280;41125;48.752;9.168;2023-02-13T03:02:05;98714.47;;;0.83;97.36
55263;BME280;41125;48.752;9.168;2023-02-13T03:02:56;98713.66;;;0.82;97.12
55263;BME280;41125;48.752;9.168;2023-02-13T03:03:47;98714.47;;;0.83;97.21
55263;BME280;41125;48.752;9.168;2023-02-13T03:04:43;98709.12;;;0.83;97.40
55263;BME280;41125;48.752;9.168;2023-02-13T03:05:38;98713.66;;;0.82;97.20
55263;BME280;41125;48.752;9.168;2023-02-13T03:07:26;98714.47;;;0.83;97.33
55263;BME280;41125;48.752;9.168;2023-02-13T03:07:57;98708.31;;;0.82;97.57
55263;BME280;41125;48.752;9.168;2023-02-13T03:08:29;98713.84;;;0.81;97.61
55263;BME280;41125;48.752;9.168;2023-02-13T03:09:38;98714.47;;;0.83;97.74
55263;BME280;41125;48.752;9.168;2023-02-13T03:10:31;98716.12;;;0.84;97.82
55263;BME280;41125;48.752;9.168;2023-02-13T03:11:25;98713.28;;;0.85;97.75
55263;BME280;41125;48.752;9.168;2023-02-13T03:12:19;98716.59;;;0.87;97.78
55263;BME280;41125;48.752;9.168;2023-02-13T03:13:14;98719.09;;;0.89;97.59
55263;BME280;41125;48.752;9.168;2023-02-13T03:13:53;98713.75;;;0.89;97.59
55263;BME280;41125;48.752;9.168;2023-02-13T03:14:27;98720.75;;;0.90;97.43
55263;BME280;41125;48.752;9.168;2023-02-13T03:14:59;98715.41;;;0.90;97.73
55263;BME280;41125;48.752;9.168;2023-02-13T03:15:31;98717.25;;;0.89;97.39
55263;BME280;41125;48.752;9.168;2023-02-13T03:16:03;98715.41;;;0.90;97.54
55263;BME280;41125;48.752;9.168;2023-02-13T03:16:55;98720.75;;;0.90;97.73
55263;BME280;41125;48.752;9.168;2023-02-13T03:17:46;98710.06;;;0.90;97.65
55263;BME280;41125;48.752;9.168;2023-02-13T03:18:39;98722.41;;;0.91;97.45
55263;BME280;41125;48.752;9.168;2023-02-13T03:20:09;98723.03;;;0.93;97.33
55263;BME280;41125;48.752;9.168;2023-02-13T03:21:15;98720.37;;;0.93;97.51
55263;BME280;41125;48.752;9.168;2023-02-13T03:22:12;98718.72;;;0.92;97.13
55263;BME280;41125;48.752;9.168;2023-02-13T03:23:09;98722.41;;;0.91;97.10
55263;BME280;41125;48.752;9.168;2023-02-13T03:23:57;98714.56;;;0.89;97.22
55263;BME280;41125;48.752;9.168;2023-02-13T03:24:43;98719.28;;;0.87;97.19
55263;BME280;41125;48.752;9.168;2023-02-13T03:25:37;98722.78;;;0.88;96.84
55263;BME280;41125;48.752;9.168;2023-02-13T03:28:16;98715.78;;;0.87;97.13
55263;BME280;41125;48.752;9.168;2023-02-13T03:29:16;98724.81;;;0.86;97.14
55263;BME280;41125;48.752;9.168;2023-02-13T03:30:25;98725.63;;;0.86;97.00
55263;BME280;41125;48.752;9.168;2023-02-13T03:32:25;98727.09;;;0.89;97.11
55263;BME280;41125;48.752;9.168;2023-02-13T03:34:14;98718.25;;;0.88;97.25
55263;BME280;41125;48.752;9.168;2023-02-13T03:36:53;98726.09;;;0.90;97.16
55263;BME280;41125;48.752;9.168;2023-02-13T03:37:49;98722.41;;;0.91;96.97
55263;BME280;41125;48.752;9.168;2023-02-13T03:38:45;98725.72;;;0.93;96.86
55263;BME280;41125;48.752;9.168;2023-02-13T03:40:44;98721.19;;;0.93;96.66
55263;BME280;41125;48.752;9.168;2023-02-13T03:41:40;98726.72;;;0.92;96.51
55263;BME280;41125;48.752;9.168;2023-02-13T03:42:34;98718.72;;;0.92;96.95
55263;BME280;41125;48.752;9.168;2023-02-13T03:43:14;98724.06;;;0.92;97.06
55263;BME280;41125;48.752;9.168;2023-02-13T03:44:24;98738.06;;;0.94;97.04
55263;BME280;41125;48.752;9.168;2023-02-13T03:45:02;98722.22;;;0.92;96.99
55263;BME280;41125;48.752;9.168;2023-02-13T03:45:54;98729.41;;;0.92;97.09
55263;BME280;41125;48.752;9.168;2023-02-13T03:46:29;98723.03;;;0.93;96.80
55263;BME280;41125;48.752;9.168;2023-02-13T03:47:03;98729.41;;;0.92;97.17
55263;BME280;41125;48.752;9.168;2023-02-13T03:47:37;98731.06;;;0.93;96.95
55263;BME280;41125;48.752;9.168;2023-02-13T03:48:10;98728.56;;;0.91;96.93
55263;BME280;41125;48.752;9.168;2023-02-13T03:49:04;98733.09;;;0.91;97.22
55263;BME280;41125;48.752;9.168;2023-02-13T03:49:55;98731.44;;;0.90;97.27